Van Buren, Maine
Current Conditions -  °F | °C
As of 3:54 AM on Friday 28 Nov 2014 (Local Time) from KCAR Reporting Station
Clear Clear  
Wind Chill:   Ceiling: Unl
Heat Index:   Visibility: 10mi
Dew Point:   Wind: 3mph
Humidity: 84%   Direction: 320°NW
Pressure: 30"   Gusts: NA
Location:  47.15°N, 67.94°W
Report Text: KCAR 280854Z AUTO 32003KT 10SM CLR M13/M15 A3000 RMK AO2 SLP173 T11281150 53002
Loading
Personal Weather Stations






























Interactive Weather Map New forecast layout! Learn more

10-Day Weather Forecast

Advertisements
Track Severe Weather on mobile